Time;durP1;ratioP1;P1;durP2;ratioP2;P2;SDS_P1;SDS_P2;PMS_P1;PMS_P2;Temp;Humidity;BMP_temperature;BMP_pressure;BME280_temperature;BME280_humidity;BME280_pressure;Samples;Min_cycle;Max_cycle;Signal;HPM_P1;HPM_P2
2022/01/26 00:07:52;;;;;;;98.77;57.67;;;;;;;1.47;100.00;103317.75;5132403;27;20073;-64
2022/01/26 00:10:18;;;;;;;101.40;56.97;;;;;;;1.49;100.00;103323.03;5100449;27;20056;-63
2022/01/26 00:12:44;;;;;;;104.60;59.20;;;;;;;1.48;100.00;103323.75;5107150;27;20062;-63
2022/01/26 00:15:10;;;;;;;110.10;60.03;;;;;;;1.46;100.00;103326.16;5132527;27;20066;-64
2022/01/26 00:17:36;;;;;;;104.93;59.73;;;;;;;1.46;100.00;103325.25;5111919;27;20045;-63
2022/01/26 00:41:05;;;;;;;101.30;57.20;;;;;;;1.42;100.00;103307.00;5041491;28;20096;-63
2022/01/26 00:43:32;;;;;;;102.87;57.70;;;;;;;1.42;100.00;103304.44;5048281;28;20063;-63
2022/01/26 00:46:00;;;;;;;106.07;56.23;;;;;;;1.42;100.00;103307.00;5047793;28;20393;-63
2022/01/26 00:48:27;;;;;;;106.13;56.73;;;;;;;1.42;100.00;103307.00;5048240;28;20025;-63
2022/01/26 00:50:54;;;;;;;101.03;57.10;;;;;;;1.43;100.00;103308.84;5045977;28;20032;-63
2022/01/26 00:53:23;;;;;;;101.90;56.73;;;;;;;1.44;100.00;103310.66;5034792;28;20041;-63
2022/01/26 00:55:49;;;;;;;109.77;57.77;;;;;;;1.44;100.00;103300.44;5034917;28;20132;-63
2022/01/26 00:58:14;;;;;;;109.37;59.80;;;;;;;1.43;100.00;103301.19;5037695;28;20112;-63
2022/01/26 01:00:40;;;;;;;111.43;60.10;;;;;;;1.44;100.00;103308.09;5110478;27;20372;-63
2022/01/26 01:03:05;;;;;;;101.63;56.07;;;;;;;1.43;100.00;103306.28;5131691;27;20076;-63
2022/01/26 01:05:39;;;;;;;104.67;57.27;;;;;;;1.44;100.00;103302.06;5130036;27;20026;-63
2022/01/26 01:08:17;;;;;;;104.07;57.17;;;;;;;1.42;100.00;103301.91;5121910;27;20459;-63
2022/01/26 01:10:45;;;;;;;108.97;57.80;;;;;;;1.42;100.00;103301.00;5124909;27;20019;-64
2022/01/26 01:13:16;;;;;;;102.43;56.57;;;;;;;1.42;100.00;103308.69;5124191;27;20031;-63
2022/01/26 01:15:42;;;;;;;104.90;57.58;;;;;;;1.41;100.00;103305.22;5111852;27;20023;-63
2022/01/26 01:18:37;;;;;;;105.23;56.27;;;;;;;1.41;100.00;103295.00;5121435;27;20023;-64
2022/01/26 01:34:27;;;;;;;105.93;56.63;;;;;;;1.38;100.00;103284.44;5007642;28;20045;-63
2022/01/26 01:36:54;;;;;;;107.77;57.43;;;;;;;1.37;100.00;103277.50;5007650;28;20050;-63
2022/01/26 01:39:21;;;;;;;104.83;56.03;;;;;;;1.37;100.00;103281.72;5007478;28;20030;-63
2022/01/26 01:41:50;;;;;;;109.13;58.63;;;;;;;1.37;100.00;103272.38;5007795;28;20112;-63
2022/01/26 01:44:16;;;;;;;104.23;56.73;;;;;;;1.36;100.00;103260.38;5007825;28;20092;-64
2022/01/26 01:46:42;;;;;;;104.23;54.87;;;;;;;1.35;100.00;103266.19;5007315;28;20035;-63
2022/01/26 01:49:10;;;;;;;106.23;56.37;;;;;;;1.34;100.00;103272.06;4990954;28;20041;-63
2022/01/26 01:51:40;;;;;;;105.53;56.93;;;;;;;1.33;100.00;103275.38;5006657;28;20114;-63
2022/01/26 01:54:15;;;;;;;103.47;56.13;;;;;;;1.34;100.00;103273.69;4975187;28;20041;-63
2022/01/26 01:56:48;;;;;;;110.87;58.10;;;;;;;1.34;100.00;103266.03;5007268;28;20193;-63
2022/01/26 01:59:13;;;;;;;104.03;54.97;;;;;;;1.32;100.00;103278.66;4991446;28;20046;-63
2022/01/26 02:01:39;;;;;;;106.07;56.73;;;;;;;1.33;100.00;103272.81;5006983;28;20036;-63
2022/01/26 02:04:04;;;;;;;105.63;56.07;;;;;;;1.33;100.00;103270.25;5075757;28;20402;-63
2022/01/26 02:06:30;;;;;;;109.00;56.60;;;;;;;1.34;100.00;103278.81;5103458;28;20032;-63
2022/01/26 02:08:55;;;;;;;106.83;56.13;;;;;;;1.33;100.00;103274.44;5108679;28;20030;-64
2022/01/26 02:11:20;;;;;;;109.63;58.27;;;;;;;1.34;100.00;103268.59;5110273;28;20027;-63
2022/01/26 02:16:21;;;;;;;106.57;56.97;;;;;;;1.32;100.00;103258.19;5110487;28;20463;-63
2022/01/26 02:51:22;;;;;;;110.07;56.80;;;;;;;1.22;100.00;103229.84;5123409;28;20050;-64
2022/01/26 03:04:57;;;;;;;105.73;53.97;;;;;;;1.12;100.00;103203.28;5129960;27;20049;-63
2022/01/26 03:09:18;;;;;;;107.23;54.87;;;;;;;1.10;100.00;103207.31;5126100;27;20031;-64
2022/01/26 03:11:46;;;;;;;109.60;56.07;;;;;;;1.07;100.00;103195.13;5115346;27;20107;-64
2022/01/26 03:17:28;;;;;;;109.00;55.00;;;;;;;1.05;100.00;103196.63;5021433;28;20037;-64
2022/01/26 03:19:57;;;;;;;106.87;54.93;;;;;;;1.04;100.00;103191.34;5018172;28;20414;-64
2022/01/26 03:33:11;;;;;;;108.10;55.63;;;;;;;1.05;100.00;103204.28;5018805;28;20437;-64
2022/01/26 03:35:43;;;;;;;104.03;55.10;;;;;;;1.03;100.00;103207.38;5018747;28;20030;-63
2022/01/26 03:38:17;;;;;;;105.67;53.30;;;;;;;1.02;100.00;103205.59;5029876;28;20158;-64
2022/01/26 03:40:43;;;;;;;98.57;52.37;;;;;;;1.03;100.00;103197.19;5023080;28;20504;-64
2022/01/26 03:43:08;;;;;;;102.93;53.83;;;;;;;1.04;100.00;103204.13;5029448;28;20032;-64
2022/01/26 03:45:34;;;;;;;107.73;54.67;;;;;;;1.03;100.00;103197.19;5023042;28;20432;-64
2022/01/26 03:47:59;;;;;;;105.77;55.37;;;;;;;1.02;100.00;103209.06;5028808;28;20068;-64
2022/01/26 03:50:25;;;;;;;104.60;52.53;;;;;;;1.00;100.00;103213.09;5016766;28;20121;-64
2022/01/26 03:52:51;;;;;;;104.17;52.67;;;;;;;1.01;100.00;103201.25;5052418;28;20036;-64
2022/01/26 03:55:16;;;;;;;109.83;56.07;;;;;;;0.99;100.00;103188.28;5097173;28;20027;-64
2022/01/26 03:57:42;;;;;;;108.47;55.87;;;;;;;0.98;100.00;103183.91;5105908;28;20032;-63
2022/01/26 04:00:09;;;;;;;108.60;54.87;;;;;;;0.97;100.00;103184.66;5112633;28;20028;-64
2022/01/26 04:02:35;;;;;;;105.17;53.07;;;;;;;0.94;100.00;103187.78;5107662;28;20032;-63
2022/01/26 04:05:05;;;;;;;102.93;53.17;;;;;;;0.95;100.00;103187.03;5096887;28;20019;-64
2022/01/26 04:07:30;;;;;;;107.27;53.83;;;;;;;0.97;100.00;103184.66;5112201;28;20023;-64
2022/01/26 04:10:04;;;;;;;109.37;55.77;;;;;;;0.97;100.00;103202.53;5100778;28;20178;-63
2022/01/26 04:12:30;;;;;;;110.13;54.93;;;;;;;0.95;100.00;103199.78;5097621;28;20502;-64
2022/01/26 04:15:02;;;;;;;102.30;53.47;;;;;;;0.97;100.00;103189.78;5102200;28;20028;-64
2022/01/26 04:17:28;;;;;;;102.60;51.50;;;;;;;0.95;100.00;103193.81;5110816;28;20031;-64
2022/01/26 04:19:56;;;;;;;108.77;54.60;;;;;;;0.93;100.00;103192.72;5105384;28;20052;-64
2022/01/26 04:22:29;;;;;;;101.43;52.20;;;;;;;0.95;100.00;103189.59;5112441;28;20073;-63
2022/01/26 04:24:55;;;;;;;107.47;54.50;;;;;;;0.95;100.00;103187.03;5111985;28;20058;-64
2022/01/26 04:27:32;;;;;;;104.83;55.40;;;;;;;0.97;100.00;103186.31;5119873;27;20051;-64
2022/01/26 04:29:57;;;;;;;106.03;54.93;;;;;;;0.97;100.00;103193.97;5113150;27;20054;-64
2022/01/26 04:32:23;;;;;;;106.43;55.97;;;;;;;0.93;100.00;103198.75;5132725;27;20054;-64
2022/01/26 04:34:49;;;;;;;103.00;54.57;;;;;;;0.91;100.00;103199.31;5118972;27;20023;-64
2022/01/26 04:39:53;;;;;;;107.17;55.57;;;;;;;0.90;100.00;103206.06;5132441;27;20050;-65
2022/01/26 04:42:28;;;;;;;106.07;52.93;;;;;;;0.89;100.00;103214.47;5125748;27;20023;-64
2022/01/26 04:45:01;;;;;;;105.67;53.83;;;;;;;0.88;100.00;103215.19;5115436;27;20020;-62
2022/01/26 04:47:26;;;;;;;103.47;55.50;;;;;;;0.89;100.00;103224.69;5118558;27;20473;-63
2022/01/26 04:49:51;;;;;;;112.27;55.87;;;;;;;0.89;100.00;103223.75;5132204;27;20106;-63
2022/01/26 04:52:17;;;;;;;106.07;52.87;;;;;;;0.90;100.00;103229.03;5106778;27;20062;-63
2022/01/26 04:54:42;;;;;;;105.47;53.13;;;;;;;0.93;100.00;103231.94;5131986;27;20098;-63
2022/01/26 04:57:07;;;;;;;105.30;53.60;;;;;;;0.92;100.00;103230.09;5132075;27;20023;-63
2022/01/26 04:59:33;;;;;;;105.10;53.87;;;;;;;0.94;100.00;103223.53;5131647;27;20019;-63
2022/01/26 05:01:58;;;;;;;111.97;55.70;;;;;;;0.89;100.00;103223.75;5106483;27;20029;-63
2022/01/26 05:04:24;;;;;;;106.13;56.07;;;;;;;0.90;100.00;103228.16;5119177;27;20417;-63
2022/01/26 05:06:50;;;;;;;108.10;52.67;;;;;;;0.90;100.00;103226.47;5131613;27;20030;-63
2022/01/26 05:09:15;;;;;;;108.00;55.53;;;;;;;0.91;100.00;103218.09;5131287;27;20048;-63
2022/01/26 05:11:42;;;;;;;110.40;54.37;;;;;;;0.91;100.00;103215.53;5131486;27;20056;-63
2022/01/26 05:14:08;;;;;;;107.20;54.97;;;;;;;0.88;100.00;103217.72;5122202;27;20011;-62
2022/01/26 05:16:34;;;;;;;106.30;54.70;;;;;;;0.90;100.00;103229.03;5131154;27;20295;-64
2022/01/26 05:19:00;;;;;;;110.90;54.00;;;;;;;0.88;100.00;103217.72;5124806;27;20019;-63
2022/01/26 05:21:28;;;;;;;108.43;55.53;;;;;;;0.90;100.00;103205.16;5103349;27;20015;-64
2022/01/26 05:23:53;;;;;;;104.87;53.50;;;;;;;0.91;100.00;103197.66;5122838;27;20526;-63
2022/01/26 05:26:19;;;;;;;109.60;54.83;;;;;;;0.90;100.00;103188.19;5125871;27;20118;-63
2022/01/26 05:28:45;;;;;;;109.37;54.70;;;;;;;0.90;100.00;103195.84;5128732;27;20027;-63
2022/01/26 05:31:11;;;;;;;109.20;55.13;;;;;;;0.89;100.00;103165.94;5124206;27;20065;-63
2022/01/26 05:33:36;;;;;;;109.07;54.70;;;;;;;0.92;100.00;103173.94;5124110;27;20431;-62
2022/01/26 05:36:02;;;;;;;102.17;52.53;;;;;;;0.94;100.00;103171.53;5117464;27;20070;-63
2022/01/26 05:38:27;;;;;;;109.63;54.20;;;;;;;0.87;100.00;103172.53;5131218;27;20106;-63
2022/01/26 05:40:55;;;;;;;105.70;53.13;;;;;;;0.87;100.00;103184.38;5106485;27;20042;-62
2022/01/26 05:43:21;;;;;;;103.33;52.63;;;;;;;0.88;100.00;103192.19;5117846;27;20051;-63
2022/01/26 05:45:53;;;;;;;105.57;53.67;;;;;;;0.87;100.00;103185.28;5118787;27;20090;-63
2022/01/26 05:48:19;;;;;;;108.27;54.07;;;;;;;0.84;100.00;103179.88;5131034;27;20038;-63
2022/01/26 05:50:51;;;;;;;107.17;53.43;;;;;;;0.86;100.00;103172.38;5131219;27;20031;-63
2022/01/26 05:53:20;;;;;;;99.57;52.27;;;;;;;0.86;100.00;103178.38;5127539;27;20026;-62
2022/01/26 05:55:50;;;;;;;98.50;50.80;;;;;;;0.86;100.00;103186.03;5127735;27;20026;-63
2022/01/26 05:58:15;;;;;;;109.43;54.60;;;;;;;0.86;100.00;103170.72;5121435;27;20212;-63
2022/01/26 06:00:41;;;;;;;104.30;53.93;;;;;;;0.84;100.00;103184.97;5127480;27;20027;-63
2022/01/26 06:03:06;;;;;;;102.27;52.93;;;;;;;0.83;100.00;103166.19;5113480;27;20049;-63
2022/01/26 06:05:31;;;;;;;108.70;55.17;;;;;;;0.83;100.00;103170.38;5112141;27;20019;-63
2022/01/26 06:07:57;;;;;;;107.63;53.67;;;;;;;0.87;100.00;103166.50;5118627;27;20542;-63
2022/01/26 06:10:22;;;;;;;110.77;54.47;;;;;;;0.84;100.00;103159.44;5114543;27;20125;-63
2022/01/26 06:12:47;;;;;;;108.87;55.47;;;;;;;0.86;100.00;103170.72;5119557;27;20149;-63
2022/01/26 06:15:12;;;;;;;111.83;56.47;;;;;;;0.84;100.00;103172.19;5118047;27;20089;-63
2022/01/26 06:17:38;;;;;;;107.63;54.90;;;;;;;0.82;100.00;103171.13;5124809;27;20030;-63
2022/01/26 06:20:04;;;;;;;107.50;54.20;;;;;;;0.81;100.00;103175.31;5122539;27;20043;-63
2022/01/26 06:22:29;;;;;;;112.53;56.33;;;;;;;0.84;100.00;103190.06;5109715;28;20055;-63
2022/01/26 06:24:57;;;;;;;106.60;55.63;;;;;;;0.85;100.00;103191.00;5106391;27;20034;-63
2022/01/26 06:27:22;;;;;;;110.43;55.60;;;;;;;0.87;100.00;103179.28;5124049;27;20043;-63
2022/01/26 06:29:47;;;;;;;104.47;53.57;;;;;;;0.89;100.00;103168.50;5121026;27;20113;-63
2022/01/26 06:32:14;;;;;;;113.00;58.93;;;;;;;0.89;100.00;103165.03;5103318;27;20068;-64
2022/01/26 06:34:40;;;;;;;112.40;57.23;;;;;;;0.90;100.00;103165.19;5117494;27;20031;-63
2022/01/26 06:37:06;;;;;;;108.10;58.77;;;;;;;0.92;100.00;103162.81;5098829;27;20060;-63
2022/01/26 06:39:34;;;;;;;110.13;57.03;;;;;;;0.92;100.00;103161.16;5118608;27;20089;-63
2022/01/26 06:41:59;;;;;;;109.93;56.40;;;;;;;0.87;100.00;103167.41;5122118;28;20027;-63
2022/01/26 06:44:30;;;;;;;116.83;59.00;;;;;;;0.89;100.00;103163.41;5130322;28;20096;-63
2022/01/26 06:49:30;;;;;;;107.25;55.00;;;;;;;0.93;100.00;103177.41;5130085;28;20471;-63
2022/01/26 06:51:57;;;;;;;110.23;55.17;;;;;;;0.94;100.00;103181.75;5121627;28;20382;-63
2022/01/26 06:54:23;;;;;;;105.17;54.97;;;;;;;0.96;100.00;103195.59;5109308;27;20034;-63
2022/01/26 06:56:48;;;;;;;104.60;54.27;;;;;;;0.96;100.00;103175.19;5108687;28;20032;-63
2022/01/26 06:59:14;;;;;;;108.37;55.73;;;;;;;0.95;100.00;103176.81;5114785;28;20046;-63
2022/01/26 07:01:41;;;;;;;105.73;56.03;;;;;;;0.96;100.00;103175.19;5116197;28;20030;-63
2022/01/26 07:04:06;;;;;;;103.03;53.83;;;;;;;0.92;100.00;103178.13;5115633;28;20027;-63
2022/01/26 07:06:32;;;;;;;114.57;56.83;;;;;;;0.94;100.00;103180.13;5107009;28;20024;-63
2022/01/26 07:08:57;;;;;;;106.60;55.27;;;;;;;0.92;100.00;103180.69;5119103;27;20459;-63
2022/01/26 07:11:22;;;;;;;107.37;54.07;;;;;;;0.92;100.00;103168.81;5103769;28;20076;-63
2022/01/26 07:13:50;;;;;;;107.17;57.43;;;;;;;0.93;100.00;103165.56;5100879;28;20038;-62
2022/01/26 07:21:43;;;;;;;110.67;56.30;;;;;;;0.90;100.00;103190.72;5109266;28;20100;-62
2022/01/26 07:24:08;;;;;;;112.63;57.40;;;;;;;0.90;100.00;103182.19;5107190;28;20036;-63
2022/01/26 07:26:34;;;;;;;115.43;56.83;;;;;;;0.91;100.00;103207.88;5115233;28;20479;-63
2022/01/26 07:29:06;;;;;;;112.23;57.47;;;;;;;0.92;100.00;103218.97;5129124;28;20038;-63
2022/01/26 07:31:33;;;;;;;116.57;56.60;;;;;;;0.93;100.00;103200.38;5109878;28;20081;-63
2022/01/26 07:33:59;;;;;;;116.83;58.33;;;;;;;0.94;100.00;103182.69;5117611;28;20027;-63
2022/01/26 07:36:25;;;;;;;125.20;59.00;;;;;;;0.97;100.00;103194.88;5127110;28;20035;-63
2022/01/26 07:38:54;;;;;;;120.40;60.10;;;;;;;0.95;100.00;103206.56;5127590;28;20055;-63
2022/01/26 07:41:19;;;;;;;125.33;60.93;;;;;;;0.95;100.00;103199.78;5120980;28;20181;-63
2022/01/26 07:43:45;;;;;;;127.07;61.30;;;;;;;0.93;100.00;103196.19;5117076;27;20024;-63
2022/01/26 07:46:12;;;;;;;122.47;59.40;;;;;;;0.95;100.00;103194.69;5105745;28;20323;-64
2022/01/26 07:48:37;;;;;;;122.87;61.83;;;;;;;0.95;100.00;103199.78;5095047;28;20034;-63
2022/01/26 07:51:03;;;;;;;124.57;61.90;;;;;;;0.94;100.00;103195.44;5127944;27;20019;-63
2022/01/26 07:53:28;;;;;;;122.27;60.50;;;;;;;0.95;100.00;103192.13;5126966;27;20023;-63
2022/01/26 07:55:55;;;;;;;123.87;61.40;;;;;;;0.99;100.00;103187.38;5118199;27;20034;-63
2022/01/26 07:58:21;;;;;;;122.10;59.93;;;;;;;0.99;100.00;103190.81;5113661;27;20073;-63
2022/01/26 08:00:47;;;;;;;123.00;60.07;;;;;;;0.97;100.00;103209.28;5118042;27;20027;-63
2022/01/26 08:03:12;;;;;;;130.73;61.27;;;;;;;0.97;100.00;103217.88;5115131;27;20114;-63
2022/01/26 08:05:38;;;;;;;130.13;62.67;;;;;;;0.99;100.00;103230.81;5121567;27;20439;-63
2022/01/26 08:08:03;;;;;;;124.20;60.30;;;;;;;1.00;100.00;103227.50;5121083;27;20490;-63
2022/01/26 08:10:29;;;;;;;131.50;60.60;;;;;;;0.99;100.00;103225.69;5122329;27;20396;-63
2022/01/26 08:12:54;;;;;;;123.80;59.53;;;;;;;0.99;100.00;103228.25;5120369;27;20069;-63
2022/01/26 08:15:20;;;;;;;126.10;61.50;;;;;;;1.00;100.00;103222.38;5120947;27;20034;-63
2022/01/26 08:17:45;;;;;;;126.63;59.83;;;;;;;1.01;100.00;103219.13;5126427;27;20109;-63
2022/01/26 08:20:10;;;;;;;121.53;57.60;;;;;;;1.00;100.00;103227.50;5122041;27;20097;-63
2022/01/26 08:22:37;;;;;;;123.73;59.10;;;;;;;1.01;100.00;103234.44;5122876;27;20067;-63
2022/01/26 08:25:04;;;;;;;128.83;60.10;;;;;;;1.04;100.00;103237.31;5115935;27;20458;-63
2022/01/26 08:27:37;;;;;;;127.27;59.23;;;;;;;1.03;100.00;103232.94;5122075;27;20044;-63
2022/01/26 08:30:08;;;;;;;121.67;58.93;;;;;;;1.03;100.00;103218.53;5128874;27;20045;-63
2022/01/26 08:32:34;;;;;;;128.03;59.90;;;;;;;1.02;100.00;103215.81;5127122;27;20068;-63
2022/01/26 08:34:59;;;;;;;134.40;59.33;;;;;;;1.03;100.00;103217.59;5121179;27;20032;-63
2022/01/26 08:37:25;;;;;;;126.00;60.23;;;;;;;1.03;100.00;103217.59;5128627;27;20020;-63
2022/01/26 08:39:50;;;;;;;129.63;59.30;;;;;;;1.01;100.00;103214.88;5124850;27;20027;-63
2022/01/26 08:42:16;;;;;;;128.00;59.63;;;;;;;1.05;100.00;103221.25;5127358;27;20030;-63
2022/01/26 08:44:41;;;;;;;123.50;56.97;;;;;;;1.05;100.00;103221.25;5115622;27;20428;-63
2022/01/26 08:47:06;;;;;;;128.47;58.97;;;;;;;1.05;100.00;103223.78;5121711;27;20023;-63
2022/01/26 08:49:32;;;;;;;124.27;58.00;;;;;;;1.07;100.00;103232.53;5116557;27;20019;-64
2022/01/26 08:51:58;;;;;;;125.93;59.03;;;;;;;1.07;100.00;103235.09;5128628;27;20498;-63
2022/01/26 08:54:24;;;;;;;123.93;57.87;;;;;;;1.08;100.00;103234.34;5116985;27;20041;-64
2022/01/26 08:56:51;;;;;;;121.73;58.27;;;;;;;1.10;100.00;103244.75;5112327;27;20032;-63
2022/01/26 08:59:20;;;;;;;119.57;56.70;;;;;;;1.08;100.00;103237.81;5116605;27;20050;-64
2022/01/26 09:01:45;;;;;;;128.77;59.10;;;;;;;1.10;100.00;103244.75;5112060;27;20047;-63
2022/01/26 09:04:11;;;;;;;120.97;57.60;;;;;;;1.12;100.00;103238.13;5126134;27;20069;-63
2022/01/26 09:06:49;;;;;;;122.07;56.53;;;;;;;1.11;100.00;103232.16;5124527;27;20026;-63
2022/01/26 09:09:15;;;;;;;115.13;56.33;;;;;;;1.11;100.00;103227.03;5126462;27;20023;-63
2022/01/26 09:11:42;;;;;;;131.33;59.47;;;;;;;1.11;100.00;103221.00;5118553;27;20023;-63
2022/01/26 09:14:08;;;;;;;119.67;55.77;;;;;;;1.11;100.00;103224.47;5115877;27;20464;-63
2022/01/26 09:16:35;;;;;;;131.33;58.87;;;;;;;1.11;100.00;103227.03;5120637;27;20032;-63
2022/01/26 09:19:12;;;;;;;125.50;58.47;;;;;;;1.12;100.00;103231.38;5123020;27;20034;-63
2022/01/26 09:21:39;;;;;;;126.77;56.83;;;;;;;1.14;100.00;103237.56;5115222;27;20051;-63
2022/01/26 09:24:04;;;;;;;117.10;56.60;;;;;;;1.16;100.00;103235.19;5122061;27;20224;-63
2022/01/26 09:26:30;;;;;;;120.57;56.07;;;;;;;1.15;100.00;103231.72;5119557;27;20055;-63
2022/01/26 09:28:55;;;;;;;117.30;54.83;;;;;;;1.16;100.00;103241.22;5097433;28;20028;-63
2022/01/26 09:31:20;;;;;;;117.63;54.80;;;;;;;1.18;100.00;103247.41;5104348;27;20278;-64
2022/01/26 09:33:46;;;;;;;118.17;56.00;;;;;;;1.18;100.00;103249.97;5105494;28;20027;-63
2022/01/26 09:36:11;;;;;;;109.63;55.40;;;;;;;1.22;100.00;103247.72;5103812;27;20107;-64
2022/01/26 09:38:38;;;;;;;114.97;53.73;;;;;;;1.22;100.00;103246.09;5096669;28;20098;-63
2022/01/26 09:41:03;;;;;;;113.30;56.60;;;;;;;1.25;100.00;103242.94;5106526;28;20023;-63
2022/01/26 09:43:30;;;;;;;111.73;51.97;;;;;;;1.25;100.00;103235.28;5107212;28;20019;-63
2022/01/26 09:45:56;;;;;;;114.80;54.63;;;;;;;1.25;100.00;103232.72;5089834;28;20030;-64
2022/01/26 09:48:21;;;;;;;111.53;54.57;;;;;;;1.24;100.00;103218.16;5090098;28;20031;-63
2022/01/26 09:50:53;;;;;;;108.57;52.57;;;;;;;1.26;100.00;103221.78;5099625;28;20030;-63
2022/01/26 09:53:22;;;;;;;107.67;53.07;;;;;;;1.30;100.00;103213.69;5110507;28;20023;-63
2022/01/26 09:55:47;;;;;;;114.70;53.83;;;;;;;1.32;100.00;103219.88;5104793;28;20031;-63
2022/01/26 09:58:15;;;;;;;107.23;52.57;;;;;;;1.32;100.00;103212.22;5090621;28;20031;-63
2022/01/26 10:00:41;;;;;;;102.50;53.00;;;;;;;1.37;100.00;103213.59;5110231;28;20019;-63
2022/01/26 10:03:07;;;;;;;105.07;51.27;;;;;;;1.36;100.00;103209.25;5109928;28;20054;-63
2022/01/26 10:05:44;;;;;;;100.87;50.73;;;;;;;1.41;100.00;103210.66;5109444;28;20026;-63
2022/01/26 10:08:52;;;;;;;100.93;51.97;;;;;;;1.41;100.00;103210.66;5103850;28;20025;-63
2022/01/26 10:19:07;;;;;;;91.77;47.33;;;;;;;1.43;100.00;103209.19;5109334;28;20032;-63
2022/01/26 10:21:32;;;;;;;89.53;47.67;;;;;;;1.44;100.00;103208.41;5108026;28;20110;-63
2022/01/26 10:24:07;;;;;;;85.53;46.90;;;;;;;1.47;100.00;103212.97;5109920;28;20107;-63
2022/01/26 10:26:32;;;;;;;84.50;47.30;;;;;;;1.49;100.00;103202.91;5109404;28;20075;-63
2022/01/26 10:29:00;;;;;;;86.83;47.67;;;;;;;1.51;100.00;103198.88;5109438;28;20116;-63
2022/01/26 10:31:27;;;;;;;86.13;47.40;;;;;;;1.52;100.00;103187.88;5109529;28;20031;-63
2022/01/26 10:34:10;;;;;;;82.77;44.37;;;;;;;1.55;100.00;103191.69;5109654;28;20126;-63
2022/01/26 10:36:42;;;;;;;83.83;45.73;;;;;;;1.55;100.00;103195.88;5110003;27;20019;-64
2022/01/26 10:39:38;;;;;;;;;;;;;;;1.57;100.00;103217.41;5111413;27;20150;-63
2022/01/26 10:42:10;;;;;;;81.47;45.07;;;;;;;1.58;100.00;103232.03;5107802;28;19908;-63
2022/01/26 10:44:43;;;;;;;87.63;45.50;;;;;;;1.61;100.00;103251.88;5096658;28;20080;-63
2022/01/26 10:47:09;;;;;;;79.03;44.87;;;;;;;1.62;100.00;103256.25;5110880;27;20029;-63
2022/01/26 10:52:27;;;;;;;78.43;45.20;;;;;;;1.62;100.00;103249.47;5111999;28;20040;-63
2022/01/26 10:54:52;;;;;;;81.17;45.57;;;;;;;1.64;100.00;103245.44;5113430;27;20095;-63
2022/01/26 10:57:18;;;;;;;82.57;46.03;;;;;;;1.65;100.00;103252.38;5129663;28;20035;-63
2022/01/26 10:59:46;;;;;;;85.90;46.03;;;;;;;1.67;100.00;103250.88;5129828;28;20132;-63
2022/01/26 11:02:13;;;;;;;80.17;43.77;;;;;;;1.70;100.00;103251.94;5129830;28;20429;-63
2022/01/26 11:04:42;;;;;;;77.47;45.33;;;;;;;1.71;100.00;103243.56;5123465;28;20027;-63
2022/01/26 11:07:11;;;;;;;82.17;46.37;;;;;;;1.72;100.00;103230.00;5124969;28;20031;-63
2022/01/26 11:09:43;;;;;;;81.77;47.13;;;;;;;1.71;100.00;103235.88;5114855;28;20494;-63
2022/01/26 11:12:11;;;;;;;81.07;46.70;;;;;;;1.70;100.00;103241.72;5106333;28;20507;-63
2022/01/26 11:14:40;;;;;;;80.60;45.93;;;;;;;1.73;100.00;103231.81;5129672;28;20027;-64
2022/01/26 11:17:05;;;;;;;80.27;45.60;;;;;;;1.70;100.00;103231.50;5129705;28;20106;-63
2022/01/26 11:19:44;;;;;;;80.47;48.13;;;;;;;1.68;100.00;103229.69;5120248;28;20023;-63
2022/01/26 11:22:12;;;;;;;84.27;46.77;;;;;;;1.67;100.00;103226.97;5099143;28;20071;-64
2022/01/26 11:24:43;;;;;;;81.23;46.10;;;;;;;1.72;100.00;103227.47;5110651;28;20110;-64
2022/01/26 11:27:08;;;;;;;84.38;45.55;;;;;;;1.70;100.00;103226.38;5106611;27;20072;-63
2022/01/26 11:29:37;;;;;;;89.53;48.43;;;;;;;1.68;100.00;103227.13;5112851;28;20110;-63
2022/01/26 11:32:16;;;;;;;93.40;47.77;;;;;;;1.72;100.00;103227.47;5113480;28;20054;-63
2022/01/26 11:34:42;;;;;;;81.90;45.33;;;;;;;1.71;100.00;103218.00;5127866;27;20128;-63
2022/01/26 11:37:12;;;;;;;80.97;45.63;;;;;;;1.68;100.00;103222.03;5133495;27;20036;-63
2022/01/26 11:45:05;;;;;;;82.37;46.17;;;;;;;1.70;100.00;103201.72;5133596;27;20027;-63
2022/01/26 11:47:32;;;;;;;87.85;46.03;;;;;;;1.68;100.00;103195.53;5128210;27;20027;-63
2022/01/26 11:50:03;;;;;;;84.47;46.43;;;;;;;1.70;100.00;103190.59;5126141;27;20075;-63
2022/01/26 11:52:35;;;;;;;;;;;;;;;1.71;100.00;103190.75;5133408;27;20031;-63
2022/01/26 11:55:03;;;;;;;85.70;45.23;;;;;;;1.80;100.00;103193.38;5132556;27;20006;-63
2022/01/26 11:57:38;;;;;;;78.67;45.17;;;;;;;1.78;100.00;103187.22;5133206;27;20234;-63
2022/01/26 12:00:09;;;;;;;83.33;46.93;;;;;;;1.81;100.00;103184.97;5124332;27;20036;-64
2022/01/26 12:05:16;;;;;;;82.43;45.53;;;;;;;1.88;100.00;103187.44;5123203;27;20039;-63
2022/01/26 12:07:57;;;;;;;78.97;43.80;;;;;;;1.91;100.00;103186.84;5128729;27;20027;-64
2022/01/26 12:10:28;;;;;;;83.73;45.33;;;;;;;1.87;100.00;103180.50;5116257;27;20034;-63
2022/01/26 12:13:02;;;;;;;79.38;45.38;;;;;;;1.86;100.00;103175.22;5123761;27;20076;-64
2022/01/26 12:15:32;;;;;;;72.97;42.90;;;;;;;1.89;100.00;103168.78;5125218;27;20039;-63
2022/01/26 12:42:39;;;;;;;83.93;45.07;;;;;;;1.99;100.00;103174.88;5124200;27;20050;-64
2022/01/26 12:45:05;;;;;;;77.57;45.13;;;;;;;2.01;100.00;103173.38;5124422;27;20064;-63
2022/01/26 12:47:31;;;;;;;76.57;45.67;;;;;;;2.03;100.00;103182.13;5127023;27;20461;-63
2022/01/26 12:49:57;;;;;;;75.77;43.43;;;;;;;2.04;100.00;103181.38;5122542;27;20031;-63
2022/01/26 12:52:23;;;;;;;79.97;46.77;;;;;;;2.03;100.00;103182.13;5124484;27;20022;-63
2022/01/26 12:54:49;;;;;;;77.07;43.60;;;;;;;2.06;100.00;103171.28;5119646;27;20028;-63
2022/01/26 12:57:15;;;;;;;74.23;44.57;;;;;;;2.06;100.00;103179.88;5122474;27;20031;-63
2022/01/26 12:59:40;;;;;;;78.87;44.60;;;;;;;2.08;100.00;103180.94;5118233;27;20490;-64
2022/01/26 13:02:05;;;;;;;74.20;43.07;;;;;;;2.11;100.00;103180.34;5112969;27;20056;-63
2022/01/26 13:04:31;;;;;;;75.73;44.60;;;;;;;2.16;100.00;103168.94;5114821;27;20479;-63
2022/01/26 13:06:57;;;;;;;74.60;42.80;;;;;;;2.15;100.00;103164.56;5112136;27;20092;-63
2022/01/26 13:09:28;;;;;;;73.40;42.60;;;;;;;2.18;100.00;103162.31;5119619;27;20451;-64
2022/01/26 13:11:55;;;;;;;73.25;42.35;;;;;;;2.20;100.00;103152.25;5124308;27;20027;-63
2022/01/26 13:14:38;;;;;;;69.93;43.10;;;;;;;2.22;100.00;103143.09;5123460;27;20079;-63
2022/01/26 13:20:12;;;;;;;70.57;41.60;;;;;;;2.25;100.00;103146.88;5127718;27;20470;-63
2022/01/26 13:51:46;;;;;;;102.80;67.70;;;;;;;2.44;100.00;103129.94;5125274;27;20035;-64
2022/01/26 13:59:21;;;;;;;115.00;74.40;;;;;;;2.42;100.00;103119.53;5118932;27;20045;-63
2022/01/26 14:01:48;;;;;;;102.53;71.70;;;;;;;2.44;100.00;103119.69;5116244;27;20027;-63
2022/01/26 14:04:16;;;;;;;97.83;62.90;;;;;;;2.49;100.00;103119.44;5112389;27;20024;-63
2022/01/26 14:06:42;;;;;;;91.63;60.63;;;;;;;2.49;100.00;103119.44;5114352;27;20020;-63
2022/01/26 14:09:07;;;;;;;89.60;56.13;;;;;;;2.51;100.00;103106.78;5117873;27;20047;-64
2022/01/26 14:11:33;;;;;;;82.53;54.90;;;;;;;2.50;100.00;103110.09;5112567;27;20521;-64
2022/01/26 14:13:59;;;;;;;78.03;49.63;;;;;;;2.48;100.00;103102.25;5111612;27;20051;-64
2022/01/26 14:16:27;;;;;;;74.77;46.97;;;;;;;2.47;100.00;103107.19;5110522;27;20023;-64
2022/01/26 14:19:07;;;;;;;70.33;44.63;;;;;;;2.51;100.00;103096.53;5120534;27;20029;-63
2022/01/26 14:21:44;;;;;;;68.73;45.13;;;;;;;2.54;100.00;103106.19;5118514;27;20051;-63